Time;durP1;ratioP1;P1;durP2;ratioP2;P2;SDS_P1;SDS_P2;PMS_P1;PMS_P2;Temp;Humidity;BMP_temperature;BMP_pressure;BME280_temperature;BME280_humidity;BME280_pressure;Samples;Min_cycle;Max_cycle;Signal;HPM_P1;HPM_P2
2023/01/18 05:01:22;;;;;;;28.30;15.80;;;2.10;99.90;;;;;;5590608;23;20907;-72
2023/01/18 05:03:49;;;;;;;26.03;14.70;;;2.10;99.90;;;;;;4967683;28;20491;-72
2023/01/18 05:06:18;;;;;;;26.67;14.83;;;2.20;99.90;;;;;;4966713;28;20490;-72
2023/01/18 05:08:45;;;;;;;22.90;13.47;;;2.20;99.90;;;;;;4967355;28;20495;-72
2023/01/18 05:11:14;;;;;;;22.97;12.93;;;2.30;99.90;;;;;;4966988;28;20464;-72
2023/01/18 05:13:41;;;;;;;22.13;12.80;;;2.20;99.90;;;;;;4967526;28;20452;-72
2023/01/18 05:16:13;;;;;;;24.80;12.97;;;2.10;99.90;;;;;;4966807;28;20448;-72
2023/01/18 05:18:42;;;;;;;17.77;11.30;;;2.10;99.90;;;;;;4965565;28;21167;-72
2023/01/18 05:21:09;;;;;;;21.10;12.17;;;2.10;99.90;;;;;;4966980;28;20512;-72
2023/01/18 05:23:37;;;;;;;21.07;12.30;;;2.00;99.90;;;;;;4967139;28;20456;-72
2023/01/18 05:26:12;;;;;;;20.13;11.63;;;2.00;99.90;;;;;;4966400;28;20456;-72
2023/01/18 05:28:39;;;;;;;16.90;11.50;;;2.00;99.90;;;;;;4967009;28;20530;-72
2023/01/18 05:31:06;;;;;;;15.80;10.47;;;2.10;99.90;;;;;;4966587;28;20844;-72
2023/01/18 05:33:32;;;;;;;15.10;10.00;;;2.10;99.90;;;;;;4967277;28;20862;-72
2023/01/18 05:36:01;;;;;;;14.97;10.00;;;2.20;99.90;;;;;;4966158;28;20463;-72
2023/01/18 05:38:27;;;;;;;14.80;9.47;;;2.20;99.90;;;;;;4966493;28;20818;-72
2023/01/18 05:40:54;;;;;;;12.47;8.80;;;2.20;99.90;;;;;;4968176;28;20476;-65
2023/01/18 05:43:22;;;;;;;15.37;8.90;;;2.20;99.90;;;;;;4969809;28;20456;-64
2023/01/18 05:45:49;;;;;;;11.57;8.73;;;2.20;99.90;;;;;;4969323;28;20460;-67
2023/01/18 05:48:16;;;;;;;10.90;8.43;;;2.20;99.90;;;;;;4966033;28;21020;-67
2023/01/18 05:50:45;;;;;;;13.60;9.47;;;2.10;99.90;;;;;;4947052;28;20473;-67
2023/01/18 05:53:15;;;;;;;13.70;8.60;;;2.00;99.90;;;;;;4947572;29;20820;-67
2023/01/18 05:55:42;;;;;;;11.87;8.60;;;2.00;99.90;;;;;;4948219;29;20790;-67
2023/01/18 05:58:10;;;;;;;12.37;7.83;;;2.00;99.90;;;;;;4946759;29;20456;-67
2023/01/18 06:00:37;;;;;;;16.83;10.87;;;2.10;99.90;;;;;;4947249;28;20493;-67
2023/01/18 06:03:04;;;;;;;11.80;8.87;;;2.20;99.90;;;;;;4947510;28;20474;-68
2023/01/18 06:05:30;;;;;;;10.70;7.83;;;2.20;99.90;;;;;;4946992;29;20462;-67
2023/01/18 06:07:58;;;;;;;10.13;8.27;;;2.10;99.90;;;;;;4945988;29;20508;-68
2023/01/18 06:10:26;;;;;;;11.37;8.60;;;2.10;99.90;;;;;;4946676;28;20465;-67
2023/01/18 06:12:53;;;;;;;12.73;8.37;;;2.10;99.90;;;;;;4947786;29;20457;-67
2023/01/18 06:15:20;;;;;;;10.93;8.17;;;2.20;99.90;;;;;;4947366;29;20460;-68
2023/01/18 06:17:46;;;;;;;10.67;8.10;;;2.20;99.90;;;;;;4946639;29;20448;-68
2023/01/18 06:20:13;;;;;;;11.27;7.73;;;2.20;99.90;;;;;;4947119;28;20460;-68
2023/01/18 06:22:40;;;;;;;9.00;7.53;;;2.10;99.90;;;;;;4947191;29;20464;-67
2023/01/18 06:25:08;;;;;;;9.60;7.30;;;2.20;99.90;;;;;;4946917;29;20457;-68
2023/01/18 06:27:38;;;;;;;9.87;7.30;;;2.20;99.90;;;;;;4945914;29;20545;-68
2023/01/18 06:30:06;;;;;;;9.87;6.97;;;2.10;99.90;;;;;;4946912;29;20468;-68
2023/01/18 06:32:33;;;;;;;7.23;6.33;;;2.00;99.90;;;;;;4947039;28;20489;-68
2023/01/18 06:34:59;;;;;;;9.47;7.27;;;2.00;99.90;;;;;;4947294;29;20460;-67
2023/01/18 06:37:26;;;;;;;10.40;7.20;;;1.90;99.90;;;;;;4946509;29;20465;-68
2023/01/18 06:39:53;;;;;;;9.23;6.80;;;1.80;99.90;;;;;;4946793;29;20453;-68
2023/01/18 06:42:20;;;;;;;9.50;7.00;;;1.70;99.90;;;;;;4947410;28;20484;-68
2023/01/18 06:44:48;;;;;;;8.30;7.00;;;1.60;99.90;;;;;;4947340;29;20460;-67
2023/01/18 06:47:18;;;;;;;9.37;7.50;;;1.60;99.90;;;;;;4945785;29;21194;-67
2023/01/18 06:49:45;;;;;;;10.87;7.67;;;1.60;99.90;;;;;;4966849;28;21157;-67
2023/01/18 06:52:12;;;;;;;10.57;7.50;;;1.70;99.90;;;;;;4985492;28;20487;-67
2023/01/18 06:54:39;;;;;;;11.97;8.47;;;1.60;99.90;;;;;;4985718;28;20455;-68
2023/01/18 06:57:06;;;;;;;11.13;8.27;;;1.70;99.90;;;;;;4984873;28;20452;-68
2023/01/18 06:59:32;;;;;;;11.90;9.43;;;1.70;99.90;;;;;;4985374;28;20462;-68
2023/01/18 07:02:00;;;;;;;10.63;8.33;;;1.60;99.90;;;;;;4985613;28;20510;-68
2023/01/18 07:04:27;;;;;;;12.00;8.90;;;1.60;99.90;;;;;;4989416;28;20471;-68
2023/01/18 07:06:54;;;;;;;14.27;9.70;;;1.60;99.90;;;;;;4988803;28;20853;-67
2023/01/18 07:09:21;;;;;;;9.33;7.90;;;1.50;99.90;;;;;;4989135;28;20490;-67
2023/01/18 07:11:48;;;;;;;12.93;9.53;;;1.50;99.90;;;;;;4989312;28;20475;-68
2023/01/18 07:14:15;;;;;;;11.67;9.03;;;1.50;99.90;;;;;;4989011;28;20854;-67
2023/01/18 07:16:41;;;;;;;11.70;9.17;;;1.50;99.90;;;;;;4987994;28;20936;-67
2023/01/18 07:19:10;;;;;;;13.83;9.63;;;1.50;99.90;;;;;;4989149;28;20452;-67
2023/01/18 07:21:36;;;;;;;15.50;11.13;;;1.50;99.90;;;;;;4988667;28;20468;-67
2023/01/18 07:24:04;;;;;;;15.67;11.00;;;1.50;99.90;;;;;;4988858;28;20459;-67
2023/01/18 07:26:30;;;;;;;14.90;10.90;;;1.40;99.90;;;;;;4988359;28;20470;-67
2023/01/18 07:28:57;;;;;;;17.50;11.57;;;1.30;99.90;;;;;;4988364;28;20503;-67
2023/01/18 07:31:24;;;;;;;20.20;12.33;;;1.30;99.90;;;;;;4988838;28;20475;-67
2023/01/18 07:33:51;;;;;;;14.90;10.07;;;1.30;99.90;;;;;;4988380;28;20466;-68
2023/01/18 07:36:21;;;;;;;14.57;10.50;;;1.20;99.90;;;;;;4987328;28;20464;-68
2023/01/18 07:38:48;;;;;;;15.10;10.37;;;1.20;99.90;;;;;;4988313;28;20460;-67
2023/01/18 07:41:16;;;;;;;15.40;10.00;;;1.30;99.90;;;;;;4988529;28;20479;-68
2023/01/18 07:43:43;;;;;;;13.50;9.27;;;1.20;99.90;;;;;;4988644;28;20455;-67
2023/01/18 07:46:13;;;;;;;14.10;9.50;;;1.20;99.90;;;;;;4988340;28;20462;-67
2023/01/18 07:48:40;;;;;;;9.87;8.33;;;1.10;99.90;;;;;;4988385;28;20510;-67
2023/01/18 07:51:08;;;;;;;12.00;7.93;;;1.20;99.90;;;;;;4987922;28;20480;-67
2023/01/18 07:53:38;;;;;;;13.40;9.27;;;1.20;99.90;;;;;;4987927;28;20447;-67
2023/01/18 07:56:06;;;;;;;14.80;9.20;;;1.20;99.90;;;;;;4987360;28;20456;-67
2023/01/18 07:58:34;;;;;;;13.80;9.37;;;1.20;99.90;;;;;;4988335;28;20794;-67
2023/01/18 08:01:05;;;;;;;10.20;7.70;;;1.20;99.90;;;;;;4988213;28;20864;-67
2023/01/18 08:03:32;;;;;;;13.50;8.93;;;1.20;99.90;;;;;;4988163;28;20455;-67
2023/01/18 08:06:00;;;;;;;14.27;9.43;;;1.10;99.90;;;;;;4987561;28;20464;-67
2023/01/18 08:08:28;;;;;;;11.50;8.43;;;1.10;99.90;;;;;;4987906;28;20718;-67
2023/01/18 08:10:57;;;;;;;15.93;9.37;;;1.20;99.90;;;;;;4987552;28;20475;-67
2023/01/18 08:13:25;;;;;;;11.53;9.00;;;1.20;99.90;;;;;;4987696;28;20456;-67
2023/01/18 08:15:53;;;;;;;11.90;8.00;;;1.30;99.90;;;;;;4987238;28;20461;-67
2023/01/18 08:18:19;;;;;;;12.40;8.90;;;1.30;99.90;;;;;;4987543;28;20447;-67
2023/01/18 08:20:48;;;;;;;16.37;10.50;;;1.30;99.90;;;;;;4987843;28;20487;-67
2023/01/18 08:23:15;;;;;;;15.20;10.70;;;1.30;99.90;;;;;;4987461;28;20451;-67
2023/01/18 08:25:42;;;;;;;15.87;11.00;;;1.20;99.90;;;;;;4987478;28;20452;-67
2023/01/18 08:28:11;;;;;;;17.40;12.07;;;1.20;99.90;;;;;;4986953;28;20456;-67
2023/01/18 08:30:41;;;;;;;18.60;12.20;;;1.20;99.90;;;;;;4987578;28;20485;-67
2023/01/18 08:33:08;;;;;;;20.30;13.67;;;1.10;99.90;;;;;;4987834;28;20455;-67
2023/01/18 08:35:41;;;;;;;20.33;13.10;;;1.10;99.90;;;;;;4987183;28;20963;-67
2023/01/18 08:38:08;;;;;;;18.40;12.10;;;1.10;99.90;;;;;;4987011;28;20439;-67
2023/01/18 08:40:35;;;;;;;20.80;12.87;;;1.00;99.90;;;;;;4987324;28;20506;-67
2023/01/18 08:43:03;;;;;;;20.13;13.27;;;0.90;99.90;;;;;;4987276;28;20820;-67
2023/01/18 08:45:33;;;;;;;19.53;13.03;;;0.90;99.90;;;;;;4986985;28;20458;-67
2023/01/18 08:48:02;;;;;;;21.03;13.20;;;0.90;99.90;;;;;;4986387;28;20549;-67
2023/01/18 08:50:30;;;;;;;19.67;12.83;;;0.90;99.90;;;;;;4986771;28;20524;-67
2023/01/18 08:52:58;;;;;;;17.77;12.93;;;0.90;99.90;;;;;;4987262;28;20454;-67
2023/01/18 08:55:25;;;;;;;17.37;11.90;;;0.90;99.90;;;;;;4987314;28;20487;-67
2023/01/18 08:57:54;;;;;;;17.67;12.07;;;0.90;99.90;;;;;;4986614;28;20456;-67
2023/01/18 09:00:22;;;;;;;16.80;11.00;;;0.90;99.90;;;;;;4987061;28;20452;-67
2023/01/18 09:02:51;;;;;;;16.07;11.47;;;0.90;99.90;;;;;;4987002;28;20444;-67
2023/01/18 09:05:18;;;;;;;19.20;12.47;;;0.90;99.90;;;;;;4986784;28;20951;-67
2023/01/18 09:07:46;;;;;;;19.60;12.37;;;0.90;99.90;;;;;;4986137;28;21019;-67
2023/01/18 09:10:13;;;;;;;16.80;11.50;;;0.90;99.90;;;;;;4987133;28;20495;-67
2023/01/18 09:12:40;;;;;;;19.73;12.73;;;0.90;99.90;;;;;;4987083;28;20464;-67
2023/01/18 09:15:08;;;;;;;17.57;11.53;;;0.90;99.90;;;;;;4986752;28;20455;-67
2023/01/18 09:17:35;;;;;;;18.23;11.67;;;0.90;99.90;;;;;;4986414;28;20459;-67
2023/01/18 09:20:08;;;;;;;15.47;11.27;;;0.90;99.90;;;;;;4987099;28;20459;-67
2023/01/18 09:22:35;;;;;;;17.27;11.57;;;0.90;99.90;;;;;;4986691;28;20534;-67
2023/01/18 09:25:02;;;;;;;17.27;11.43;;;1.00;99.90;;;;;;4986496;28;20464;-67
2023/01/18 09:27:28;;;;;;;16.87;9.90;;;1.00;99.90;;;;;;4985703;28;20451;-67
2023/01/18 09:29:55;;;;;;;15.23;10.60;;;0.90;99.90;;;;;;4985973;28;20721;-67
2023/01/18 09:32:24;;;;;;;16.27;11.43;;;1.00;99.90;;;;;;4986286;28;20487;-67
2023/01/18 09:34:51;;;;;;;16.80;10.93;;;0.90;99.90;;;;;;4986618;28;20464;-67
2023/01/18 09:37:20;;;;;;;17.93;12.17;;;0.90;99.90;;;;;;4986168;28;20459;-67
2023/01/18 09:39:48;;;;;;;15.07;10.10;;;0.90;99.90;;;;;;4986602;28;20454;-67
2023/01/18 09:42:20;;;;;;;15.57;10.40;;;1.00;99.90;;;;;;4986208;28;20481;-67
2023/01/18 09:44:50;;;;;;;15.83;11.27;;;0.90;99.90;;;;;;4986197;28;20447;-67
2023/01/18 09:47:23;;;;;;;15.67;11.40;;;0.90;99.90;;;;;;4985808;28;20455;-67
2023/01/18 09:49:55;;;;;;;14.80;11.20;;;0.90;99.90;;;;;;4986461;28;20479;-67
2023/01/18 09:52:33;;;;;;;16.10;11.73;;;0.90;99.90;;;;;;4986271;28;20938;-67
2023/01/18 09:55:08;;;;;;;15.80;11.30;;;0.90;99.90;;;;;;4986382;28;20450;-67
2023/01/18 09:57:50;;;;;;;14.90;10.80;;;1.00;99.90;;;;;;4985819;28;20435;-67
2023/01/18 10:00:22;;;;;;;16.60;11.70;;;0.90;99.90;;;;;;4985944;28;20447;-67
2023/01/18 10:02:52;;;;;;;17.00;11.80;;;0.90;99.90;;;;;;4986612;28;20466;-67
2023/01/18 10:05:23;;;;;;;16.47;11.77;;;0.90;99.90;;;;;;4985958;28;20448;-67
2023/01/18 10:08:02;;;;;;;14.03;10.90;;;1.00;99.90;;;;;;4985543;28;20451;-67
2023/01/18 10:10:33;;;;;;;14.87;10.40;;;1.00;99.90;;;;;;4986330;28;20518;-67
2023/01/18 10:13:20;;;;;;;14.27;10.10;;;1.00;99.90;;;;;;4986196;28;20456;-67
2023/01/18 10:15:48;;;;;;;15.57;10.40;;;0.90;99.90;;;;;;4986249;28;20470;-67
2023/01/18 10:18:17;;;;;;;14.50;10.30;;;1.00;99.90;;;;;;4985531;28;20458;-67
2023/01/18 10:20:50;;;;;;;12.90;8.93;;;1.00;99.90;;;;;;4985915;28;20472;-67
2023/01/18 10:23:24;;;;;;;17.97;10.40;;;1.00;99.90;;;;;;4985929;28;20813;-67
2023/01/18 10:25:55;;;;;;;12.87;9.10;;;1.10;99.90;;;;;;4985513;28;20506;-67
2023/01/18 10:28:32;;;;;;;14.53;9.90;;;1.10;99.90;;;;;;4985583;28;20468;-67
2023/01/18 10:31:22;;;;;;;12.90;9.20;;;1.10;99.90;;;;;;4985691;28;20501;-67
2023/01/18 10:33:55;;;;;;;11.73;8.90;;;1.10;99.90;;;;;;4985916;28;20444;-67
2023/01/18 10:36:25;;;;;;;10.87;8.43;;;1.10;99.90;;;;;;4986215;28;20457;-67
2023/01/18 10:38:55;;;;;;;11.97;8.83;;;1.10;99.90;;;;;;4989512;28;21006;-67
2023/01/18 10:41:27;;;;;;;13.67;9.87;;;1.00;99.90;;;;;;4989854;28;20470;-67
2023/01/18 10:43:54;;;;;;;11.83;8.30;;;1.10;99.90;;;;;;4989551;28;20549;-67
2023/01/18 10:46:21;;;;;;;12.70;8.90;;;1.00;99.90;;;;;;4988884;28;20463;-67
2023/01/18 10:48:49;;;;;;;15.20;10.63;;;1.00;99.90;;;;;;4989032;28;20446;-67
2023/01/18 10:51:30;;;;;;;14.00;9.83;;;1.10;99.90;;;;;;4989419;28;20482;-67
2023/01/18 10:53:59;;;;;;;17.73;11.33;;;1.10;99.90;;;;;;4989268;28;20533;-67
2023/01/18 10:56:28;;;;;;;16.47;11.50;;;1.10;99.90;;;;;;4988384;28;20470;-67
2023/01/18 10:58:58;;;;;;;15.67;10.17;;;1.00;99.90;;;;;;4989356;28;20455;-67
2023/01/18 11:01:28;;;;;;;16.03;11.40;;;1.10;99.90;;;;;;4988919;28;20483;-67
2023/01/18 11:04:04;;;;;;;17.27;10.77;;;1.20;99.90;;;;;;4989662;28;20810;-67
2023/01/18 11:06:32;;;;;;;19.50;11.20;;;1.20;99.90;;;;;;4988653;28;20554;-67
2023/01/18 11:09:00;;;;;;;22.70;13.50;;;1.20;99.90;;;;;;4989214;28;20475;-68
2023/01/18 11:14:23;;;;;;;25.17;17.90;;;1.00;99.90;;;;;;4988452;28;20462;-68
2023/01/18 11:16:58;;;;;;;17.00;11.97;;;1.10;99.90;;;;;;4988163;28;20980;-68
2023/01/18 11:19:25;;;;;;;20.40;12.53;;;1.00;99.90;;;;;;4989226;28;20559;-67
2023/01/18 11:21:54;;;;;;;20.47;12.83;;;1.00;99.90;;;;;;4988819;28;20586;-67
2023/01/18 11:24:26;;;;;;;20.47;12.50;;;1.00;99.90;;;;;;4988356;28;20462;-67
2023/01/18 11:26:57;;;;;;;21.47;13.23;;;1.00;99.90;;;;;;4988010;28;20826;-67
2023/01/18 11:29:28;;;;;;;19.17;13.30;;;1.00;99.90;;;;;;4988271;28;20581;-67
2023/01/18 11:32:04;;;;;;;20.50;12.40;;;1.00;99.90;;;;;;4988654;28;20479;-67
2023/01/18 11:34:33;;;;;;;19.87;12.97;;;1.00;99.90;;;;;;4988680;28;20793;-67
2023/01/18 11:37:02;;;;;;;20.10;13.83;;;1.00;99.90;;;;;;4987574;28;20455;-67
2023/01/18 11:39:33;;;;;;;21.10;13.30;;;1.00;99.90;;;;;;4988619;28;20455;-67
2023/01/18 11:42:22;;;;;;;21.27;13.63;;;1.10;99.90;;;;;;4988515;28;20509;-68
2023/01/18 11:45:18;;;;;;;23.53;13.90;;;1.10;99.90;;;;;;4961471;28;20453;-67
2023/01/18 11:47:56;;;;;;;24.37;14.27;;;1.10;99.90;;;;;;4967888;28;20435;-67
2023/01/18 11:50:39;;;;;;;19.97;13.27;;;1.20;99.90;;;;;;4968874;28;20480;-71
2023/01/18 11:53:24;;;;;;;22.07;13.33;;;1.20;99.90;;;;;;4968663;28;20468;-68
2023/01/18 11:56:04;;;;;;;22.53;14.00;;;1.20;99.90;;;;;;4968284;28;20452;-69
2023/01/18 11:58:35;;;;;;;18.83;12.40;;;1.20;99.90;;;;;;4968894;28;20460;-68
2023/01/18 12:01:27;;;;;;;21.73;12.67;;;1.20;99.90;;;;;;4968561;28;20481;-68
2023/01/18 12:03:58;;;;;;;25.07;14.50;;;1.20;99.90;;;;;;4968155;28;20944;-68
2023/01/18 12:06:37;;;;;;;18.90;12.70;;;1.20;99.90;;;;;;4968124;28;20445;-68
2023/01/18 12:09:19;;;;;;;31.57;13.53;;;1.30;99.90;;;;;;4968563;28;21093;-68
2023/01/18 12:11:57;;;;;;;19.50;13.10;;;1.40;99.90;;;;;;4968039;28;20487;-68
2023/01/18 12:14:36;;;;;;;22.33;12.93;;;1.40;99.90;;;;;;4968130;28;20805;-70
2023/01/18 12:17:22;;;;;;;21.03;12.13;;;1.40;99.90;;;;;;4967637;28;20964;-68
2023/01/18 12:20:13;;;;;;;19.43;11.93;;;1.40;99.90;;;;;;4968106;28;21052;-68
2023/01/18 12:23:08;;;;;;;17.63;11.50;;;1.40;99.90;;;;;;4968323;28;20437;-68
2023/01/18 12:25:48;;;;;;;17.70;12.10;;;1.40;99.90;;;;;;4967989;28;20901;-68
2023/01/18 12:28:31;;;;;;;18.10;11.43;;;1.40;99.90;;;;;;4967647;28;20451;-68
2023/01/18 12:31:11;;;;;;;24.07;12.40;;;1.40;99.90;;;;;;4967568;28;20603;-69
2023/01/18 12:33:49;;;;;;;16.73;10.60;;;1.40;99.90;;;;;;4968456;28;20456;-68
2023/01/18 12:36:33;;;;;;;18.00;11.43;;;1.40;99.90;;;;;;4967143;28;21035;-68
2023/01/18 12:39:06;;;;;;;18.50;11.37;;;1.40;99.90;;;;;;4967878;28;20960;-68
2023/01/18 12:41:52;;;;;;;15.43;10.10;;;1.40;99.90;;;;;;4968281;28;20480;-68
2023/01/18 12:44:36;;;;;;;16.70;9.90;;;1.40;99.90;;;;;;4967842;28;20447;-68
2023/01/18 12:47:13;;;;;;;17.30;11.40;;;1.40;99.90;;;;;;4967042;28;20452;-68
2023/01/18 12:49:44;;;;;;;15.80;10.17;;;1.40;99.90;;;;;;4967493;28;20507;-69
2023/01/18 12:52:13;;;;;;;14.73;10.37;;;1.30;99.90;;;;;;4967823;28;20475;-68
2023/01/18 12:54:44;;;;;;;14.87;10.07;;;1.30;99.90;;;;;;4967396;28;20941;-68
2023/01/18 12:57:12;;;;;;;20.17;10.83;;;1.30;99.90;;;;;;4966516;28;20967;-69
2023/01/18 12:59:47;;;;;;;15.10;10.30;;;1.30;99.90;;;;;;4966621;28;20474;-68
2023/01/18 13:02:24;;;;;;;27.13;10.63;;;1.40;99.90;;;;;;4967234;28;20487;-68
2023/01/18 13:04:55;;;;;;;16.63;10.30;;;1.30;99.90;;;;;;4967845;28;20435;-68
2023/01/18 13:07:26;;;;;;;16.00;11.17;;;1.30;99.90;;;;;;4965611;28;20814;-68
2023/01/18 13:09:54;;;;;;;15.67;9.20;;;1.40;99.90;;;;;;4966607;28;20853;-69
2023/01/18 13:12:21;;;;;;;13.33;8.77;;;1.30;99.90;;;;;;4966485;28;20472;-68
2023/01/18 13:14:56;;;;;;;14.63;9.10;;;1.30;99.90;;;;;;4966217;28;20460;-68
2023/01/18 13:17:28;;;;;;;20.90;9.70;;;1.30;99.90;;;;;;4965933;28;20435;-68
2023/01/18 13:19:59;;;;;;;14.87;8.80;;;1.30;99.90;;;;;;4966221;28;20433;-68
2023/01/18 13:22:34;;;;;;;13.70;9.00;;;1.30;99.90;;;;;;4966178;28;20484;-68
2023/01/18 13:25:34;;;;;;;14.63;9.13;;;1.30;99.90;;;;;;4966319;28;20805;-68
2023/01/18 13:28:04;;;;;;;17.37;8.70;;;1.30;99.90;;;;;;4965484;28;20496;-68
2023/01/18 13:30:42;;;;;;;14.87;8.60;;;1.30;99.90;;;;;;4965866;28;21208;-68
2023/01/18 13:33:13;;;;;;;18.50;10.40;;;1.40;99.90;;;;;;4966165;28;20444;-68
2023/01/18 13:35:50;;;;;;;14.43;9.00;;;1.40;99.90;;;;;;4965925;28;20551;-68
2023/01/18 13:38:20;;;;;;;12.63;7.80;;;1.50;99.90;;;;;;4966103;28;20801;-68
2023/01/18 13:40:54;;;;;;;15.10;8.70;;;1.50;99.90;;;;;;4965678;28;21471;-68
2023/01/18 13:43:53;;;;;;;27.17;21.90;;;1.50;99.90;;;;;;4966375;28;20456;-68
2023/01/18 13:46:24;;;;;;;25.63;13.73;;;1.60;99.90;;;;;;4965839;28;20460;-68
2023/01/18 13:48:54;;;;;;;30.20;16.03;;;1.60;99.90;;;;;;4965512;28;20456;-68
2023/01/18 13:51:50;;;;;;;36.67;21.50;;;1.60;99.90;;;;;;4966282;28;20583;-67
2023/01/18 13:54:42;;;;;;;13.97;8.70;;;1.60;99.90;;;;;;4966058;28;20473;-70
2023/01/18 13:57:16;;;;;;;13.70;9.00;;;1.60;99.90;;;;;;4965625;28;20460;-68
2023/01/18 13:59:48;;;;;;;17.60;10.40;;;1.60;99.90;;;;;;4966550;28;20440;-68
2023/01/18 14:02:22;;;;;;;19.70;10.60;;;1.60;99.90;;;;;;4966733;28;20575;-68
2023/01/18 14:04:59;;;;;;;52.03;33.43;;;1.50;99.90;;;;;;4966417;28;20460;-69
2023/01/18 14:07:27;;;;;;;18.23;8.90;;;1.50;99.90;;;;;;4966020;28;20432;-68
2023/01/18 14:09:54;;;;;;;19.53;11.57;;;1.50;99.90;;;;;;4966435;28;20519;-68
2023/01/18 14:12:49;;;;;;;57.67;42.37;;;1.50;99.90;;;;;;4969598;28;20477;-68
2023/01/18 14:15:26;;;;;;;21.70;11.17;;;1.60;99.90;;;;;;4970141;28;20905;-68
2023/01/18 14:17:54;;;;;;;16.50;9.30;;;1.60;99.90;;;;;;4970010;28;20465;-67
2023/01/18 14:20:50;;;;;;;17.67;10.67;;;1.60;99.90;;;;;;4962357;28;20465;-67
2023/01/18 14:23:30;;;;;;;20.43;10.07;;;1.70;99.90;;;;;;4950927;28;20465;-68
2023/01/18 14:26:02;;;;;;;18.30;10.23;;;1.80;99.90;;;;;;4950977;29;20437;-67
2023/01/18 14:28:35;;;;;;;21.10;10.23;;;1.80;99.90;;;;;;4950880;29;20457;-68
2023/01/18 14:31:03;;;;;;;15.73;10.20;;;1.70;99.90;;;;;;4951090;28;20507;-68
2023/01/18 14:33:33;;;;;;;10.53;7.63;;;1.80;99.90;;;;;;4951261;29;20454;-68
2023/01/18 14:36:01;;;;;;;13.27;8.50;;;1.70;99.90;;;;;;4949979;29;20457;-68
2023/01/18 14:38:29;;;;;;;12.60;9.30;;;1.80;99.90;;;;;;4950711;29;20453;-68
2023/01/18 14:40:58;;;;;;;22.30;8.67;;;1.80;99.90;;;;;;4951090;28;20468;-68
2023/01/18 14:43:27;;;;;;;17.30;11.37;;;1.90;99.90;;;;;;4951019;29;20942;-67
2023/01/18 14:46:00;;;;;;;16.93;9.70;;;1.90;99.90;;;;;;4950353;29;20453;-68
2023/01/18 14:48:30;;;;;;;18.27;10.63;;;2.00;99.90;;;;;;4950295;29;20449;-68
2023/01/18 14:50:59;;;;;;;15.53;9.80;;;2.00;99.90;;;;;;4950724;28;20501;-67
2023/01/18 14:53:29;;;;;;;17.77;10.23;;;2.00;99.90;;;;;;4950348;29;20456;-68
2023/01/18 14:56:19;;;;;;;18.10;9.33;;;1.90;99.90;;;;;;4950034;29;20460;-68
2023/01/18 14:58:53;;;;;;;21.77;8.43;;;1.90;99.90;;;;;;4950104;28;20468;-67
2023/01/18 15:01:27;;;;;;;20.63;11.77;;;1.90;99.90;;;;;;4950602;28;20521;-67
2023/01/18 15:03:55;;;;;;;21.33;10.13;;;1.90;99.90;;;;;;4950301;28;21076;-68
2023/01/18 15:06:35;;;;;;;14.90;9.63;;;1.90;99.90;;;;;;4949716;29;20848;-68
2023/01/18 15:09:04;;;;;;;17.57;10.33;;;1.90;99.90;;;;;;4950240;29;20457;-68
2023/01/18 15:11:33;;;;;;;22.87;13.13;;;1.90;99.90;;;;;;4949723;28;21005;-69
2023/01/18 15:14:00;;;;;;;20.40;10.97;;;1.90;99.90;;;;;;4949582;29;20464;-69
2023/01/18 15:16:30;;;;;;;20.47;13.63;;;1.90;99.90;;;;;;4949857;29;20454;-70
2023/01/18 15:19:00;;;;;;;20.80;10.07;;;1.90;99.90;;;;;;4950372;29;21191;-70
2023/01/18 15:21:29;;;;;;;24.50;10.77;;;2.00;99.90;;;;;;4950189;28;20593;-69
2023/01/18 15:24:01;;;;;;;21.63;13.43;;;2.00;99.90;;;;;;4949290;28;20462;-69
2023/01/18 15:26:36;;;;;;;29.57;12.60;;;2.10;99.90;;;;;;4949107;29;21185;-68
2023/01/18 15:29:12;;;;;;;20.73;10.00;;;2.00;99.90;;;;;;4950152;28;20543;-69
2023/01/18 15:31:48;;;;;;;22.03;11.00;;;2.00;99.90;;;;;;4949598;28;20504;-68
2023/01/18 15:34:18;;;;;;;16.07;9.10;;;2.00;99.90;;;;;;4949556;29;20457;-69
2023/01/18 15:36:45;;;;;;;14.67;8.13;;;1.90;99.90;;;;;;4948868;29;20449;-68
2023/01/18 15:39:13;;;;;;;15.50;8.00;;;2.00;99.90;;;;;;4949315;29;20825;-69
2023/01/18 15:41:41;;;;;;;16.00;7.90;;;2.00;99.90;;;;;;4949846;28;20477;-69
2023/01/18 15:44:35;;;;;;;14.57;7.40;;;2.00;99.90;;;;;;4949836;29;20461;-69
2023/01/18 15:47:21;;;;;;;16.70;7.20;;;2.00;99.90;;;;;;4947923;29;20450;-69
2023/01/18 15:49:49;;;;;;;11.77;7.80;;;2.00;99.90;;;;;;4949025;29;20437;-69
2023/01/18 15:52:33;;;;;;;11.50;7.70;;;2.00;99.90;;;;;;4949525;28;20529;-69
2023/01/18 15:55:02;;;;;;;12.13;7.50;;;2.00;99.90;;;;;;4949754;29;20445;-69
2023/01/18 15:57:35;;;;;;;15.03;7.37;;;2.10;99.90;;;;;;4948945;29;20460;-69
2023/01/18 16:00:03;;;;;;;12.93;8.40;;;2.10;99.90;;;;;;4949632;29;20444;-68
2023/01/18 16:02:32;;;;;;;11.80;8.07;;;2.10;99.90;;;;;;4949233;28;20993;-69
2023/01/18 16:05:20;;;;;;;14.40;8.43;;;2.20;99.90;;;;;;4949083;29;20833;-68
2023/01/18 16:07:48;;;;;;;15.13;8.73;;;2.20;99.90;;;;;;4948308;29;20915;-69
2023/01/18 16:10:29;;;;;;;13.03;7.40;;;2.30;99.90;;;;;;4949040;28;20929;-69
2023/01/18 16:13:16;;;;;;;12.10;8.23;;;2.30;99.90;;;;;;4949390;29;20441;-69
2023/01/18 16:15:44;;;;;;;15.47;9.10;;;2.40;99.90;;;;;;4948765;28;20461;-69
2023/01/18 16:18:16;;;;;;;11.90;8.37;;;2.40;99.90;;;;;;4948133;29;20468;-68
2023/01/18 16:20:44;;;;;;;17.80;8.40;;;2.40;99.90;;;;;;4948944;28;20824;-68
2023/01/18 16:23:20;;;;;;;12.60;8.40;;;2.30;99.90;;;;;;4948762;29;21009;-68
2023/01/18 16:25:51;;;;;;;17.30;11.20;;;2.40;99.90;;;;;;4949123;28;20456;-69
2023/01/18 16:28:21;;;;;;;14.37;9.83;;;2.40;99.90;;;;;;4948754;29;20478;-70
2023/01/18 16:30:51;;;;;;;17.70;12.33;;;2.40;99.90;;;;;;4948841;28;20506;-71
2023/01/18 16:33:20;;;;;;;15.90;10.13;;;2.50;99.90;;;;;;4948871;29;20449;-72
2023/01/18 16:35:48;;;;;;;18.83;9.50;;;2.50;99.90;;;;;;4948714;28;20450;-72
2023/01/18 16:38:18;;;;;;;14.33;9.37;;;2.50;99.90;;;;;;4948081;29;20449;-73
2023/01/18 16:40:48;;;;;;;15.03;9.90;;;2.60;99.90;;;;;;4948615;28;20492;-72
2023/01/18 16:43:22;;;;;;;13.97;8.70;;;2.60;99.90;;;;;;4947362;29;20453;-72
2023/01/18 16:45:51;;;;;;;12.83;8.90;;;2.60;99.90;;;;;;4948272;29;20439;-73
2023/01/18 16:48:21;;;;;;;25.77;13.50;;;2.60;99.90;;;;;;4949395;29;20548;-72
2023/01/18 16:50:48;;;;;;;22.03;12.87;;;2.60;99.90;;;;;;4949689;28;20889;-72
2023/01/18 16:53:18;;;;;;;25.13;13.87;;;2.50;99.90;;;;;;4949197;29;21360;-73
2023/01/18 16:55:47;;;;;;;25.20;12.97;;;2.50;99.90;;;;;;4949070;29;20457;-72
2023/01/18 16:58:15;;;;;;;26.00;14.27;;;2.50;99.90;;;;;;4948683;29;20466;-72
2023/01/18 17:00:50;;;;;;;52.93;20.93;;;2.40;99.90;;;;;;4949610;28;20489;-72
2023/01/18 17:03:16;;;;;;;29.10;14.50;;;2.30;99.90;;;;;;4949260;29;20442;-73
2023/01/18 17:05:45;;;;;;;32.97;14.83;;;2.30;99.90;;;;;;4948877;29;20972;-72
2023/01/18 17:08:13;;;;;;;32.03;16.73;;;2.40;99.90;;;;;;4948288;29;20583;-72
2023/01/18 17:10:43;;;;;;;35.13;17.77;;;2.40;99.90;;;;;;4949426;28;20478;-72
2023/01/18 17:13:10;;;;;;;22.53;14.17;;;2.40;99.90;;;;;;4949566;29;20984;-72
2023/01/18 17:15:40;;;;;;;27.90;14.40;;;2.40;99.90;;;;;;4947943;29;20475;-73
2023/01/18 17:18:09;;;;;;;16.83;11.30;;;2.30;99.90;;;;;;4947440;29;21117;-73
2023/01/18 17:20:36;;;;;;;14.70;10.13;;;2.40;99.90;;;;;;4957880;28;20482;-73
2023/01/18 17:23:04;;;;;;;21.93;11.87;;;2.40;99.90;;;;;;4985659;28;20451;-73
2023/01/18 17:25:31;;;;;;;17.50;10.87;;;2.30;99.90;;;;;;4986479;28;20482;-73
2023/01/18 17:27:59;;;;;;;15.30;11.17;;;2.40;99.90;;;;;;4986160;28;20466;-73
2023/01/18 17:30:27;;;;;;;18.43;11.40;;;2.40;99.90;;;;;;4986280;28;20459;-73
2023/01/18 17:32:54;;;;;;;21.83;11.20;;;2.40;99.90;;;;;;4986142;28;20491;-73
2023/01/18 17:35:23;;;;;;;19.07;12.13;;;2.40;99.90;;;;;;4986174;28;20811;-73
2023/01/18 17:37:51;;;;;;;23.63;11.90;;;2.40;99.90;;;;;;4985597;28;20460;-72
2023/01/18 17:40:19;;;;;;;27.20;13.53;;;2.40;99.90;;;;;;4986280;28;20506;-73
2023/01/18 17:42:46;;;;;;;17.00;11.80;;;2.40;99.90;;;;;;4986481;28;20451;-73
2023/01/18 17:45:14;;;;;;;25.40;13.90;;;2.40;99.90;;;;;;4986298;28;20554;-73
2023/01/18 17:47:42;;;;;;;20.10;13.00;;;2.30;99.90;;;;;;4985055;28;20455;-73
2023/01/18 17:50:13;;;;;;;22.90;12.00;;;2.30;99.90;;;;;;4986244;28;21383;-73
2023/01/18 17:52:40;;;;;;;21.67;12.23;;;2.30;99.90;;;;;;4985899;28;20545;-73
2023/01/18 17:55:10;;;;;;;20.03;13.03;;;2.30;99.90;;;;;;4985736;28;20909;-73
2023/01/18 17:57:38;;;;;;;20.40;11.67;;;2.30;99.90;;;;;;4985176;28;20452;-73
2023/01/18 18:00:07;;;;;;;17.97;11.60;;;2.30;99.90;;;;;;4986282;28;20459;-73
2023/01/18 18:02:35;;;;;;;20.73;12.30;;;2.30;99.90;;;;;;4985949;28;20483;-74
2023/01/18 18:05:02;;;;;;;17.47;12.20;;;2.30;99.90;;;;;;4986431;28;20801;-74